createdAt,value
2018-04-16T00:00:21.696Z,11.07
2018-04-16T00:01:30.805Z,11.09
2018-04-16T00:02:39.635Z,11.02
2018-04-16T00:03:49.021Z,11.07
2018-04-16T00:04:57.911Z,10.97
2018-04-16T00:06:06.740Z,11.04
2018-04-16T00:07:15.574Z,11.02
2018-04-16T00:08:24.417Z,11.02
2018-04-16T00:09:33.800Z,11.06
2018-04-16T00:10:42.931Z,11.06
2018-04-16T00:11:51.766Z,11
2018-04-16T00:13:00.599Z,11.14
2018-04-16T00:14:09.431Z,11.06
2018-04-16T00:15:18.264Z,11.1
2018-04-16T00:16:27.245Z,11.11
2018-04-16T00:17:36.082Z,11.1
2018-04-16T00:18:44.918Z,11.07
2018-04-16T00:19:53.748Z,11.07
2018-04-16T00:21:02.578Z,11.07
2018-04-16T00:22:11.409Z,11.09
2018-04-16T00:23:20.519Z,11.04
2018-04-16T00:24:29.348Z,11
2018-04-16T00:25:38.182Z,11.1
2018-04-16T00:26:47.015Z,11.09
2018-04-16T00:27:55.847Z,11.02
2018-04-16T00:29:04.680Z,11
2018-04-16T00:30:14.070Z,11.02
2018-04-16T00:31:23.174Z,11.09
2018-04-16T00:32:32.011Z,11.09
2018-04-16T00:33:40.996Z,11.09
2018-04-16T00:34:49.824Z,11.11
2018-04-16T00:35:58.655Z,11.07
2018-04-16T00:37:07.486Z,11.02
2018-04-16T00:38:16.318Z,10.99
2018-04-16T00:39:25.203Z,11.04
2018-04-16T00:40:34.314Z,11.04
2018-04-16T00:41:43.145Z,11.06
2018-04-16T00:42:51.976Z,11.09
2018-04-16T00:44:00.807Z,11.03
2018-04-16T00:45:09.966Z,10.99
2018-04-16T00:46:19.033Z,11.04
2018-04-16T00:47:27.865Z,10.92
2018-04-16T00:48:36.698Z,10.84
2018-04-16T00:49:45.535Z,10.91
2018-04-16T00:50:54.517Z,10.86
2018-04-16T00:52:03.354Z,10.89
2018-04-16T00:53:12.562Z,10.94
2018-04-16T00:54:21.637Z,10.91
2018-04-16T00:55:30.469Z,10.84
2018-04-16T00:56:39.302Z,10.86
2018-04-16T00:57:48.407Z,10.89
2018-04-16T00:58:57.239Z,10.85
2018-04-16T01:00:06.347Z,10.88
2018-04-16T01:01:15.180Z,10.91
2018-04-16T01:02:24.011Z,10.92
2018-04-16T01:03:32.845Z,10.92
2018-04-16T01:04:41.677Z,10.91
2018-04-16T01:05:50.513Z,10.91
2018-04-16T01:06:59.341Z,10.91
2018-04-16T01:08:08.324Z,10.86
2018-04-16T01:09:17.434Z,10.94
2018-04-16T01:10:26.275Z,10.91
2018-04-16T01:11:35.101Z,10.89
2018-04-16T01:12:44.484Z,10.88
2018-04-16T01:13:53.367Z,10.89
2018-04-16T01:15:02.471Z,10.91
2018-04-16T01:16:11.308Z,10.96
2018-04-16T01:17:20.416Z,10.85
2018-04-16T01:18:29.524Z,10.97
2018-04-16T01:19:38.607Z,10.88
2018-04-16T01:20:47.992Z,10.91
2018-04-16T01:21:57.099Z,11
2018-04-16T01:23:05.934Z,10.81
2018-04-16T01:24:14.767Z,10.84
2018-04-16T01:25:23.759Z,10.84
2018-04-16T01:26:32.592Z,10.86
2018-04-16T01:27:41.698Z,10.85
2018-04-16T01:28:50.530Z,10.84
2018-04-16T01:29:59.639Z,10.82
2018-04-16T01:31:08.724Z,10.84
2018-04-16T01:32:17.555Z,10.82
2018-04-16T01:33:26.388Z,10.85
2018-04-16T01:34:35.500Z,10.86
2018-04-16T01:35:44.337Z,10.85
2018-04-16T01:36:53.216Z,10.82
2018-04-16T01:38:02.054Z,10.79
2018-04-16T01:39:10.888Z,10.76
2018-04-16T01:40:19.723Z,10.85
2018-04-16T01:41:28.837Z,10.81
2018-04-16T01:42:37.671Z,10.79
2018-04-16T01:43:46.778Z,10.81
2018-04-16T01:44:55.882Z,10.71
2018-04-16T01:46:04.716Z,10.82
2018-04-16T01:47:13.827Z,10.7
2018-04-16T01:48:22.808Z,10.74
2018-04-16T01:49:31.642Z,10.71
2018-04-16T01:50:40.474Z,10.68
2018-04-16T01:51:49.307Z,10.66
2018-04-16T01:52:58.141Z,10.63
2018-04-16T01:54:06.976Z,10.67
2018-04-16T01:55:15.810Z,10.7
2018-04-16T01:56:24.642Z,10.66
2018-04-16T01:57:33.475Z,10.64
2018-04-16T01:58:42.308Z,10.64
2018-04-16T01:59:51.142Z,10.63
2018-04-16T02:00:59.975Z,10.67
2018-04-16T02:02:08.809Z,10.67
2018-04-16T02:03:17.640Z,10.64
2018-04-16T02:04:26.747Z,10.6
2018-04-16T02:05:35.684Z,10.66
2018-04-16T02:06:44.516Z,10.64
2018-04-16T02:07:53.349Z,10.64
2018-04-16T02:09:02.180Z,10.61
2018-04-16T02:10:11.015Z,10.68
2018-04-16T02:11:20.222Z,10.7
2018-04-16T02:12:29.058Z,10.71
2018-04-16T02:13:37.903Z,10.63
2018-04-16T02:14:47.013Z,10.63
2018-04-16T02:15:56.127Z,10.6
2018-04-16T02:17:05.237Z,10.64
2018-04-16T02:18:14.071Z,10.61
2018-04-16T02:19:23.179Z,10.68
2018-04-16T02:20:32.015Z,10.61
2018-04-16T02:21:41.120Z,10.64
2018-04-16T02:22:50.338Z,10.55
2018-04-16T02:23:59.173Z,10.52
2018-04-16T02:25:08.560Z,10.55
2018-04-16T02:26:17.392Z,10.52
2018-04-16T02:27:26.229Z,10.52
2018-04-16T02:28:35.154Z,10.55
2018-04-16T02:29:43.986Z,10.56
2018-04-16T02:30:52.829Z,10.55
2018-04-16T02:32:02.214Z,10.55
2018-04-16T02:33:11.326Z,10.52
2018-04-16T02:34:21.572Z,10.51
2018-04-16T02:35:30.405Z,10.52
2018-04-16T02:36:39.241Z,10.51
2018-04-16T02:37:48.624Z,10.52
2018-04-16T02:38:57.743Z,10.45
2018-04-16T02:40:06.778Z,10.53
2018-04-16T02:41:15.620Z,10.45
2018-04-16T02:42:25.277Z,10.52
2018-04-16T02:43:34.107Z,10.55
2018-04-16T02:44:43.492Z,10.51
2018-04-16T02:45:52.930Z,10.53
2018-04-16T02:47:01.767Z,10.48
2018-04-16T02:48:10.881Z,10.48
2018-04-16T02:49:20.000Z,10.61
2018-04-16T02:50:28.836Z,10.56
2018-04-16T02:51:37.723Z,10.47
2018-04-16T02:52:46.827Z,10.48
2018-04-16T02:53:55.944Z,10.59
2018-04-16T02:55:04.789Z,10.52
2018-04-16T02:56:13.627Z,10.59
2018-04-16T02:57:22.936Z,10.59
2018-04-16T02:58:31.771Z,10.53
2018-04-16T02:59:41.154Z,10.53
2018-04-16T03:00:50.539Z,10.47
2018-04-16T03:01:59.369Z,10.52
2018-04-16T03:03:08.629Z,10.53
2018-04-16T03:04:17.461Z,10.52
2018-04-16T03:05:26.580Z,10.52
2018-04-16T03:06:35.975Z,10.42
2018-04-16T03:07:45.081Z,10.53
2018-04-16T03:08:54.466Z,10.52
2018-04-16T03:10:03.584Z,10.59
2018-04-16T03:11:12.406Z,10.48
2018-04-16T03:12:21.240Z,10.53
2018-04-16T03:13:30.073Z,10.52
2018-04-16T03:14:39.056Z,10.55
2018-04-16T03:15:47.890Z,10.44
2018-04-16T03:16:56.725Z,10.42
2018-04-16T03:18:05.574Z,10.4
2018-04-16T03:19:14.408Z,10.44
2018-04-16T03:20:23.543Z,10.41
2018-04-16T03:21:32.374Z,10.45
2018-04-16T03:22:41.206Z,10.42
2018-04-16T03:23:50.053Z,10.44
2018-04-16T03:24:59.148Z,10.44
2018-04-16T03:26:08.556Z,10.42
2018-04-16T03:27:17.663Z,10.56
2018-04-16T03:28:26.494Z,10.48
2018-04-16T03:29:35.329Z,10.41
2018-04-16T03:30:44.435Z,10.51
2018-04-16T03:31:53.822Z,10.51
2018-04-16T03:33:02.666Z,10.45
2018-04-16T03:34:11.495Z,10.44
2018-04-16T03:35:20.327Z,10.38
2018-04-16T03:36:29.438Z,10.44
2018-04-16T03:37:38.273Z,10.51
2018-04-16T03:38:47.378Z,10.33
2018-04-16T03:39:56.218Z,10.38
2018-04-16T03:41:05.141Z,10.44
2018-04-16T03:42:13.974Z,10.47
2018-04-16T03:43:22.860Z,10.42
2018-04-16T03:44:32.241Z,10.47
2018-04-16T03:45:41.072Z,10.44
2018-04-16T03:46:50.533Z,10.47
2018-04-16T03:47:59.639Z,10.44
2018-04-16T03:49:08.779Z,10.44
2018-04-16T03:50:17.884Z,10.36
2018-04-16T03:51:26.721Z,10.41
2018-04-16T03:52:35.555Z,10.4
2018-04-16T03:53:44.386Z,10.36
2018-04-16T03:54:53.316Z,10.25
2018-04-16T03:56:02.711Z,10.29
2018-04-16T03:57:11.817Z,10.3
2018-04-16T03:58:20.932Z,10.18
2018-04-16T03:59:29.770Z,10.25
2018-04-16T04:00:38.807Z,10.25
2018-04-16T04:01:47.641Z,10.32
2018-04-16T04:02:56.474Z,10.25
2018-04-16T04:04:05.582Z,10.32
2018-04-16T04:05:14.418Z,10.29
2018-04-16T04:06:23.453Z,10.34
2018-04-16T04:07:32.285Z,10.32
2018-04-16T04:08:41.120Z,10.38
2018-04-16T04:09:49.952Z,10.23
2018-04-16T04:10:59.061Z,10.34
2018-04-16T04:12:08.045Z,10.25
2018-04-16T04:13:16.879Z,10.25
2018-04-16T04:14:26.005Z,10.23
2018-04-16T04:15:34.838Z,10.25
2018-04-16T04:16:43.671Z,10.17
2018-04-16T04:17:53.078Z,10.17
2018-04-16T04:19:01.910Z,10.22
2018-04-16T04:20:11.020Z,10.25
2018-04-16T04:21:19.852Z,10.14
2018-04-16T04:22:28.684Z,10.22
2018-04-16T04:23:37.521Z,10.18
2018-04-16T04:24:46.350Z,10.12
2018-04-16T04:25:55.184Z,10.2
2018-04-16T04:27:04.292Z,10.25
2018-04-16T04:28:13.493Z,10.14
2018-04-16T04:29:22.328Z,10.18
2018-04-16T04:30:31.158Z,10.15
2018-04-16T04:31:40.272Z,10.2
2018-04-16T04:32:49.105Z,10.17
2018-04-16T04:33:57.940Z,10.09
2018-04-16T04:35:06.792Z,10.12
2018-04-16T04:36:15.625Z,10.15
2018-04-16T04:37:24.736Z,10.15
2018-04-16T04:38:33.568Z,10.2
2018-04-16T04:39:42.396Z,10.05
2018-04-16T04:40:51.502Z,10.2
2018-04-16T04:42:00.341Z,10.12
2018-04-16T04:43:09.447Z,10.15
2018-04-16T04:44:18.277Z,10.17
2018-04-16T04:45:27.384Z,10.29
2018-04-16T04:46:36.218Z,10.2
2018-04-16T04:47:45.049Z,10.25
2018-04-16T04:48:53.883Z,10.26
2018-04-16T04:50:02.767Z,10.22
2018-04-16T04:51:11.889Z,10.17
2018-04-16T04:52:20.720Z,10.2
2018-04-16T04:53:29.552Z,10.23
2018-04-16T04:54:38.384Z,10.27
2018-04-16T04:55:47.221Z,10.18
2018-04-16T04:56:56.054Z,10.26
2018-04-16T04:58:04.889Z,10.25
2018-04-16T04:59:13.725Z,10.33
2018-04-16T05:00:22.568Z,10.38
2018-04-16T05:01:31.401Z,10.34
2018-04-16T05:02:40.236Z,10.41
2018-04-16T05:03:49.342Z,10.34
2018-04-16T05:04:58.176Z,10.51
2018-04-16T05:06:07.281Z,10.47
2018-04-16T05:07:16.115Z,10.51
2018-04-16T05:08:24.950Z,10.52
2018-04-16T05:09:33.784Z,10.55
2018-04-16T05:10:42.617Z,10.44
2018-04-16T05:11:51.563Z,10.55
2018-04-16T05:13:00.394Z,10.51
2018-04-16T05:14:09.229Z,10.56
2018-04-16T05:15:18.610Z,10.48
2018-04-16T05:16:27.445Z,10.59
2018-04-16T05:17:36.678Z,10.52
2018-04-16T05:18:45.511Z,10.55
2018-04-16T05:19:54.341Z,10.52
2018-04-16T05:21:03.172Z,10.6
2018-04-16T05:22:12.006Z,10.61
2018-04-16T05:23:20.939Z,10.68
2018-04-16T05:24:29.772Z,10.61
2018-04-16T05:25:38.608Z,10.66
2018-04-16T05:26:47.719Z,10.66
2018-04-16T05:27:56.834Z,10.61
2018-04-16T05:29:05.870Z,10.6
2018-04-16T05:30:14.703Z,10.67
2018-04-16T05:31:23.539Z,10.64
2018-04-16T05:32:32.403Z,10.66
2018-04-16T05:33:41.206Z,10.66
2018-04-16T05:34:50.414Z,10.63
2018-04-16T05:35:59.245Z,10.59
2018-04-16T05:37:08.078Z,10.64
2018-04-16T05:38:16.911Z,10.6
2018-04-16T05:39:26.025Z,10.71
2018-04-16T05:40:35.710Z,10.74
2018-04-16T05:41:44.543Z,10.73
2018-04-16T05:42:53.380Z,10.7
2018-04-16T05:44:02.224Z,10.74
2018-04-16T05:45:11.055Z,10.79
2018-04-16T05:46:20.466Z,10.7
2018-04-16T05:47:29.570Z,10.76
2018-04-16T05:48:38.411Z,10.68
2018-04-16T05:49:47.250Z,10.7
2018-04-16T05:50:56.359Z,10.71
2018-04-16T05:52:05.499Z,10.71
2018-04-16T05:53:14.330Z,10.7
2018-04-16T05:54:23.437Z,10.84
2018-04-16T05:55:32.269Z,10.76
2018-04-16T05:56:41.105Z,10.82
2018-04-16T05:57:50.362Z,10.88
2018-04-16T05:58:59.196Z,10.91
2018-04-16T06:00:08.032Z,10.92
2018-04-16T06:01:16.867Z,10.85
2018-04-16T06:02:25.702Z,10.92
2018-04-16T06:03:35.016Z,10.91
2018-04-16T06:04:44.403Z,10.91
2018-04-16T06:05:53.240Z,10.96
2018-04-16T06:07:02.070Z,10.97
2018-04-16T06:08:10.905Z,11.1
2018-04-16T06:09:19.789Z,11.04
2018-04-16T06:10:28.620Z,10.99
2018-04-16T06:11:37.727Z,11.17
2018-04-16T06:12:46.560Z,11.14
2018-04-16T06:13:55.392Z,11.21
2018-04-16T06:15:04.228Z,11.25
2018-04-16T06:16:13.055Z,11.11
2018-04-16T06:17:21.890Z,11.18
2018-04-16T06:18:30.724Z,11.18
2018-04-16T06:19:39.833Z,11.27
2018-04-16T06:20:48.967Z,11.19
2018-04-16T06:21:57.800Z,11.24
2018-04-16T06:23:06.635Z,11.18
2018-04-16T06:24:15.475Z,11.25
2018-04-16T06:25:24.412Z,11.27
2018-04-16T06:26:33.924Z,11.21
2018-04-16T06:27:42.754Z,11.27
2018-04-16T06:28:51.585Z,11.28
2018-04-16T06:30:00.419Z,11.25
2018-04-16T06:31:09.259Z,11.27
2018-04-16T06:32:18.470Z,11.24
2018-04-16T06:33:27.311Z,11.32
2018-04-16T06:34:36.141Z,11.21
2018-04-16T06:35:44.975Z,11.32
2018-04-16T06:36:53.873Z,11.25
2018-04-16T06:38:03.330Z,11.29
2018-04-16T06:39:12.163Z,11.28
2018-04-16T06:40:20.995Z,11.32
2018-04-16T06:41:29.830Z,11.32
2018-04-16T06:42:38.663Z,11.28
2018-04-16T06:43:47.499Z,11.33
2018-04-16T06:44:56.336Z,11.32
2018-04-16T06:46:05.174Z,11.37
2018-04-16T06:47:14.286Z,11.37
2018-04-16T06:48:23.120Z,11.43
2018-04-16T06:49:32.004Z,11.4
2018-04-16T06:50:40.840Z,11.46
2018-04-16T06:51:49.675Z,11.43
2018-04-16T06:52:58.512Z,11.51
2018-04-16T06:54:07.347Z,11.44
2018-04-16T06:55:16.232Z,11.47
2018-04-16T06:56:25.342Z,11.49
2018-04-16T06:57:34.458Z,11.46
2018-04-16T06:58:43.293Z,11.47
2018-04-16T06:59:52.969Z,11.54
2018-04-16T07:01:02.732Z,11.51
2018-04-16T07:02:12.417Z,11.51
2018-04-16T07:03:21.835Z,11.51
2018-04-16T07:04:31.532Z,11.58
2018-04-16T07:05:40.957Z,11.55
2018-04-16T07:06:50.354Z,11.6
2018-04-16T07:07:59.750Z,11.62
2018-04-16T07:09:08.891Z,11.73
2018-04-16T07:10:18.650Z,11.7
2018-04-16T07:11:27.485Z,11.7
2018-04-16T07:12:36.931Z,11.69
2018-04-16T07:13:46.052Z,11.75
2018-04-16T07:14:55.161Z,11.75
2018-04-16T07:16:04.361Z,11.73
2018-04-16T07:17:13.199Z,11.75
2018-04-16T07:18:22.044Z,11.76
2018-04-16T07:19:30.877Z,11.79
2018-04-16T07:20:40.014Z,11.78
2018-04-16T07:21:48.850Z,11.94
2018-04-16T07:22:57.685Z,11.9
2018-04-16T07:24:06.961Z,11.88
2018-04-16T07:25:16.083Z,11.99
2018-04-16T07:26:24.920Z,11.91
2018-04-16T07:27:34.033Z,12.04
2018-04-16T07:28:43.704Z,12.09
2018-04-16T07:29:52.891Z,12.17
2018-04-16T07:31:02.006Z,12.16
2018-04-16T07:32:10.839Z,12.17
2018-04-16T07:33:19.673Z,12.24
2018-04-16T07:34:28.782Z,12.24
2018-04-16T07:35:37.768Z,12.23
2018-04-16T07:36:46.890Z,12.29
2018-04-16T07:37:56.000Z,12.34
2018-04-16T07:39:05.116Z,12.38
2018-04-16T07:40:14.228Z,12.46
2018-04-16T07:41:23.120Z,12.39
2018-04-16T07:42:31.954Z,12.53
2018-04-16T07:43:40.788Z,12.46
2018-04-16T07:44:49.897Z,12.5
2018-04-16T07:45:59.008Z,12.5
2018-04-16T07:47:08.219Z,12.54
2018-04-16T07:48:17.052Z,12.6
2018-04-16T07:49:25.886Z,12.53
2018-04-16T07:50:34.719Z,12.53
2018-04-16T07:51:43.557Z,12.54
2018-04-16T07:52:52.964Z,12.53
2018-04-16T07:54:01.803Z,12.67
2018-04-16T07:55:10.909Z,12.67
2018-04-16T07:56:20.024Z,12.83
2018-04-16T07:57:29.134Z,12.75
2018-04-16T07:58:38.396Z,12.78
2018-04-16T07:59:47.231Z,12.85
2018-04-16T08:00:56.068Z,12.89
2018-04-16T08:02:04.903Z,12.86
2018-04-16T08:03:14.017Z,12.89
2018-04-16T08:04:22.852Z,12.9
2018-04-16T08:05:31.685Z,12.87
2018-04-16T08:06:40.832Z,12.95
2018-04-16T08:07:49.631Z,13
2018-04-16T08:08:58.465Z,13.04
2018-04-16T08:10:07.351Z,13.11
2018-04-16T08:11:16.186Z,13.19
2018-04-16T08:12:25.303Z,13.14
2018-04-16T08:13:34.139Z,13.19
2018-04-16T08:14:42.974Z,13.29
2018-04-16T08:15:52.011Z,13.29
2018-04-16T08:17:00.850Z,13.36
2018-04-16T08:18:09.685Z,13.44
2018-04-16T08:19:18.920Z,13.48
2018-04-16T08:20:28.020Z,13.49
2018-04-16T08:21:36.906Z,13.46
2018-04-16T08:22:45.748Z,13.51
2018-04-16T08:23:54.574Z,13.59
2018-04-16T08:25:03.419Z,13.62
2018-04-16T08:26:12.531Z,13.57
2018-04-16T08:27:21.791Z,13.62
2018-04-16T08:28:30.627Z,13.67
2018-04-16T08:29:39.464Z,13.63
2018-04-16T08:30:48.628Z,13.71
2018-04-16T08:31:57.470Z,13.67
2018-04-16T08:33:06.633Z,13.79
2018-04-16T08:34:15.742Z,13.82
2018-04-16T08:35:24.863Z,13.88
2018-04-16T08:36:33.701Z,13.97
2018-04-16T08:37:42.533Z,13.99
2018-04-16T08:38:51.469Z,14.18
2018-04-16T08:40:00.305Z,14.2
2018-04-16T08:41:09.139Z,14.17
2018-04-16T08:42:17.978Z,14.18
2018-04-16T08:43:27.088Z,14.18
2018-04-16T08:44:35.976Z,14.21
2018-04-16T08:45:45.369Z,14.15
2018-04-16T08:46:54.203Z,14.21
2018-04-16T08:48:03.053Z,14.18
2018-04-16T08:49:11.888Z,14.27
2018-04-16T08:50:21.051Z,14.33
2018-04-16T08:51:30.164Z,14.39
2018-04-16T08:52:39.406Z,14.46
2018-04-16T08:53:48.196Z,14.51
2018-04-16T08:54:57.032Z,14.52
2018-04-16T08:56:05.872Z,14.52
2018-04-16T08:57:14.980Z,14.54
2018-04-16T08:58:23.816Z,14.57
2018-04-16T08:59:32.658Z,14.61
2018-04-16T09:00:41.497Z,14.55
2018-04-16T09:01:50.654Z,14.64
2018-04-16T09:02:59.762Z,14.64
2018-04-16T09:04:08.599Z,14.52
2018-04-16T09:05:17.716Z,14.7
2018-04-16T09:06:26.826Z,14.73
2018-04-16T09:07:35.808Z,14.8
2018-04-16T09:08:44.931Z,14.78
2018-04-16T09:09:54.053Z,14.81
2018-04-16T09:11:02.891Z,14.86
2018-04-16T09:12:12.287Z,14.89
2018-04-16T09:13:21.399Z,14.98
2018-04-16T09:14:30.570Z,15.03
2018-04-16T09:15:39.346Z,15.09
2018-04-16T09:16:48.183Z,15.11
2018-04-16T09:17:57.020Z,15.11
2018-04-16T09:19:06.064Z,15.1
2018-04-16T09:20:15.174Z,15.27
2018-04-16T09:21:24.009Z,15.25
2018-04-16T09:22:33.131Z,15.21
2018-04-16T09:23:41.968Z,15.32
2018-04-16T09:24:51.004Z,15.41
2018-04-16T09:26:00.116Z,15.49
2018-04-16T09:27:08.951Z,15.51
2018-04-16T09:28:17.789Z,15.49
2018-04-16T09:29:26.630Z,15.51
2018-04-16T09:30:35.613Z,15.65
2018-04-16T09:31:44.450Z,15.75
2018-04-16T09:32:53.298Z,15.78
2018-04-16T09:34:02.124Z,15.69
2018-04-16T09:35:10.961Z,15.89
2018-04-16T09:36:19.802Z,15.94
2018-04-16T09:37:28.639Z,16.05
2018-04-16T09:38:37.475Z,15.92
2018-04-16T09:39:46.313Z,16.08
2018-04-16T09:40:55.426Z,16.07
2018-04-16T09:42:04.261Z,16.02
2018-04-16T09:43:13.389Z,16.02
2018-04-16T09:44:22.215Z,16.12
2018-04-16T09:45:31.050Z,16.27
2018-04-16T09:46:39.888Z,16.45
2018-04-16T09:47:48.775Z,16.53
2018-04-16T09:48:57.612Z,16.61
2018-04-16T09:50:06.450Z,16.66
2018-04-16T09:51:15.563Z,16.7
2018-04-16T09:52:24.399Z,16.76
2018-04-16T09:53:33.816Z,16.82
2018-04-16T09:54:42.651Z,16.89
2018-04-16T09:55:51.504Z,16.93
2018-04-16T09:57:00.331Z,16.89
2018-04-16T09:58:09.168Z,16.98
2018-04-16T09:59:18.107Z,16.96
2018-04-16T10:00:26.945Z,17.08
2018-04-16T10:01:36.060Z,17.06
2018-04-16T10:02:45.180Z,17.23
2018-04-16T10:03:54.019Z,17.31
2018-04-16T10:05:03.008Z,17.23
2018-04-16T10:06:11.849Z,17.46
2018-04-16T10:07:20.695Z,17.54
2018-04-16T10:08:29.525Z,17.58
2018-04-16T10:09:38.362Z,17.49
2018-04-16T10:10:47.204Z,17.62
2018-04-16T10:11:56.038Z,17.68
2018-04-16T10:13:05.149Z,17.55
2018-04-16T10:14:13.991Z,17.66
2018-04-16T10:15:22.830Z,17.82
2018-04-16T10:16:31.968Z,17.81
2018-04-16T10:17:40.807Z,17.93
2018-04-16T10:18:49.654Z,17.95
2018-04-16T10:19:59.047Z,17.86
2018-04-16T10:21:07.893Z,17.92
2018-04-16T10:22:16.782Z,17.93
2018-04-16T10:23:25.620Z,18.15
2018-04-16T10:24:34.460Z,18.08
2018-04-16T10:25:43.297Z,18.1
2018-04-16T10:26:52.137Z,18.08
2018-04-16T10:28:01.077Z,18.05
2018-04-16T10:29:09.916Z,18.03
2018-04-16T10:30:18.756Z,18.02
2018-04-16T10:31:27.597Z,18.08
2018-04-16T10:32:36.437Z,18.12
2018-04-16T10:33:45.476Z,18.08
2018-04-16T10:34:54.317Z,18.1
2018-04-16T10:36:03.434Z,18.18
2018-04-16T10:37:12.272Z,18.15
2018-04-16T10:38:21.113Z,18.3
2018-04-16T10:39:30.004Z,18.35
2018-04-16T10:40:38.840Z,18.37
2018-04-16T10:41:47.679Z,18.33
2018-04-16T10:42:56.520Z,18.36
2018-04-16T10:44:05.646Z,18.21
2018-04-16T10:45:14.628Z,18.3
2018-04-16T10:46:23.468Z,18.27
2018-04-16T10:47:32.587Z,18.44
2018-04-16T10:48:41.428Z,18.57
2018-04-16T10:49:50.267Z,18.55
2018-04-16T10:50:59.158Z,18.52
2018-04-16T10:52:08.004Z,18.6
2018-04-16T10:53:16.842Z,18.47
2018-04-16T10:54:25.680Z,18.42
2018-04-16T10:55:34.545Z,18.54
2018-04-16T10:56:43.427Z,18.54
2018-04-16T10:57:52.600Z,18.57
2018-04-16T10:59:01.456Z,18.45
2018-04-16T11:00:10.574Z,18.57
2018-04-16T11:01:19.412Z,18.6
2018-04-16T11:02:28.301Z,18.62
2018-04-16T11:03:37.420Z,18.58
2018-04-16T11:04:46.811Z,18.65
2018-04-16T11:05:55.651Z,18.78
2018-04-16T11:07:04.495Z,18.75
2018-04-16T11:08:13.540Z,18.73
2018-04-16T11:09:22.382Z,18.6
2018-04-16T11:10:31.229Z,18.65
2018-04-16T11:11:40.067Z,18.81
2018-04-16T11:12:48.906Z,18.7
2018-04-16T11:13:57.974Z,18.69
2018-04-16T11:15:07.088Z,18.65
2018-04-16T11:16:15.927Z,18.81
2018-04-16T11:17:24.766Z,18.85
2018-04-16T11:18:33.608Z,18.99
2018-04-16T11:19:42.494Z,18.78
2018-04-16T11:20:51.335Z,18.81
2018-04-16T11:22:00.174Z,18.84
2018-04-16T11:23:09.036Z,18.91
2018-04-16T11:24:18.449Z,18.91
2018-04-16T11:25:27.578Z,18.99
2018-04-16T11:26:36.489Z,19.06
2018-04-16T11:27:45.330Z,19.08
2018-04-16T11:28:54.170Z,18.91
2018-04-16T11:30:03.288Z,19.04
2018-04-16T11:31:12.183Z,19.06
2018-04-16T11:32:21.075Z,19.22
2018-04-16T11:33:30.199Z,19.33
2018-04-16T11:34:39.039Z,19.31
2018-04-16T11:35:47.881Z,19.4
2018-04-16T11:36:56.787Z,19.41
2018-04-16T11:38:06.314Z,19.44
2018-04-16T11:39:15.164Z,19.55
2018-04-16T11:40:24.080Z,19.51
2018-04-16T11:41:33.628Z,19.41
2018-04-16T11:42:42.814Z,19.51
2018-04-16T11:43:51.743Z,19.61
2018-04-16T11:45:00.602Z,19.59
2018-04-16T11:46:09.451Z,19.76
2018-04-16T11:47:18.291Z,19.68
2018-04-16T11:48:27.561Z,19.69
2018-04-16T11:49:36.405Z,19.54
2018-04-16T11:50:45.520Z,19.61
2018-04-16T11:51:54.360Z,19.59
2018-04-16T11:53:03.200Z,19.47
2018-04-16T11:54:12.043Z,19.58
2018-04-16T11:55:20.875Z,19.41
2018-04-16T11:56:29.715Z,19.41
2018-04-16T11:57:38.554Z,19.43
2018-04-16T11:58:47.680Z,19.41
2018-04-16T11:59:57.126Z,19.19
2018-04-16T12:01:05.969Z,19.25
2018-04-16T12:02:14.841Z,19.08
2018-04-16T12:03:24.004Z,19.08
2018-04-16T12:04:32.987Z,19.08
2018-04-16T12:05:42.263Z,18.92
2018-04-16T12:06:51.103Z,18.9
2018-04-16T12:07:59.944Z,18.73
2018-04-16T12:09:09.052Z,18.67
2018-04-16T12:10:17.907Z,18.51
2018-04-16T12:11:27.034Z,18.3
2018-04-16T12:12:35.872Z,18.2
2018-04-16T12:13:44.709Z,18.14
2018-04-16T12:14:53.545Z,17.89
2018-04-16T12:16:02.386Z,17.54
2018-04-16T12:17:11.327Z,17.03
2018-04-16T12:18:20.176Z,16.71
2018-04-16T12:19:29.014Z,16.49
2018-04-16T12:20:37.830Z,16.27
2018-04-16T12:21:46.667Z,16.07
2018-04-16T12:22:55.655Z,15.86
2018-04-16T12:24:04.765Z,15.84
2018-04-16T12:25:13.602Z,15.51
2018-04-16T12:26:22.707Z,15.38
2018-04-16T12:27:31.544Z,15.29
2018-04-16T12:28:40.547Z,15.21
2018-04-16T12:29:49.382Z,15.36
2018-04-16T12:30:58.222Z,15.36
2018-04-16T12:32:07.603Z,15.32
2018-04-16T12:33:16.721Z,15.35
2018-04-16T12:34:25.753Z,15.29
2018-04-16T12:35:34.602Z,15.38
2018-04-16T12:36:43.694Z,15.38
2018-04-16T12:37:52.856Z,15.34
2018-04-16T12:39:01.697Z,15.29
2018-04-16T12:40:10.678Z,15.25
2018-04-16T12:41:19.788Z,15.25
2018-04-16T12:42:28.624Z,15.35
2018-04-16T12:43:37.460Z,15.31
2018-04-16T12:44:46.297Z,15.31
2018-04-16T12:45:55.184Z,15.5
2018-04-16T12:47:04.303Z,15.54
2018-04-16T12:48:13.139Z,15.71
2018-04-16T12:49:21.982Z,15.78
2018-04-16T12:50:31.092Z,15.78
2018-04-16T12:51:40.035Z,15.86
2018-04-16T12:52:48.867Z,15.97
2018-04-16T12:53:57.976Z,15.92
2018-04-16T12:55:06.814Z,16.07
2018-04-16T12:56:15.924Z,16.11
2018-04-16T12:57:24.851Z,16.21
2018-04-16T12:58:33.646Z,16.27
2018-04-16T12:59:42.486Z,16.34
2018-04-16T13:00:51.319Z,16.42
2018-04-16T13:02:00.159Z,16.43
2018-04-16T13:03:09.247Z,16.45
2018-04-16T13:04:18.357Z,16.66
2018-04-16T13:05:27.199Z,16.73
2018-04-16T13:06:36.038Z,17.06
2018-04-16T13:07:45.449Z,17.11
2018-04-16T13:08:54.815Z,16.94
2018-04-16T13:10:03.658Z,17.16
2018-04-16T13:11:12.498Z,17.12
2018-04-16T13:12:21.334Z,17.22
2018-04-16T13:13:30.176Z,17.31
2018-04-16T13:14:39.609Z,17.28
2018-04-16T13:15:48.442Z,17.3
2018-04-16T13:16:57.284Z,17.31
2018-04-16T13:18:06.121Z,17.36
2018-04-16T13:19:14.960Z,17.43
2018-04-16T13:20:24.050Z,17.23
2018-04-16T13:21:32.890Z,17.33
2018-04-16T13:22:41.731Z,17.16
2018-04-16T13:23:50.844Z,17.19
2018-04-16T13:24:59.682Z,17.22
2018-04-16T13:26:08.671Z,17.21
2018-04-16T13:27:17.789Z,17.18
2018-04-16T13:28:26.629Z,17.28
2018-04-16T13:29:35.748Z,17.19
2018-04-16T13:30:44.589Z,17.12
2018-04-16T13:31:53.807Z,17.08
2018-04-16T13:33:02.645Z,17.15
2018-04-16T13:34:11.765Z,17.19
2018-04-16T13:35:20.603Z,17.44
2018-04-16T13:36:29.479Z,17.41
2018-04-16T13:37:38.484Z,17.36
2018-04-16T13:38:47.326Z,17.28
2018-04-16T13:39:56.161Z,17.46
2018-04-16T13:41:05.001Z,17.49
2018-04-16T13:42:13.839Z,17.58
2018-04-16T13:43:22.731Z,17.68
2018-04-16T13:44:31.846Z,17.92
2018-04-16T13:45:40.966Z,17.92
2018-04-16T13:46:50.366Z,17.92
2018-04-16T13:47:59.208Z,17.93
2018-04-16T13:49:08.621Z,17.92
2018-04-16T13:50:17.465Z,17.99
2018-04-16T13:51:26.309Z,17.96
2018-04-16T13:52:35.441Z,17.86
2018-04-16T13:53:44.556Z,17.74
2018-04-16T13:54:53.392Z,17.92
2018-04-16T13:56:02.253Z,17.78
2018-04-16T13:57:11.080Z,17.87
2018-04-16T13:58:19.918Z,17.87
2018-04-16T13:59:28.759Z,18.05
2018-04-16T14:00:37.873Z,18.05
2018-04-16T14:01:46.713Z,18.17
2018-04-16T14:02:55.553Z,18.27
2018-04-16T14:04:04.395Z,18.15
2018-04-16T14:05:13.236Z,18.12
2018-04-16T14:06:22.076Z,18.2
2018-04-16T14:07:30.915Z,18.32
2018-04-16T14:08:39.757Z,18.36
2018-04-16T14:09:48.872Z,18.29
2018-04-16T14:10:57.715Z,18.33
2018-04-16T14:12:06.609Z,18.44
2018-04-16T14:13:15.403Z,18.55
2018-04-16T14:14:24.246Z,18.58
2018-04-16T14:15:33.411Z,18.6
2018-04-16T14:16:42.255Z,18.58
2018-04-16T14:17:51.408Z,18.65
2018-04-16T14:19:00.573Z,18.58
2018-04-16T14:20:10.194Z,18.67
2018-04-16T14:21:20.004Z,18.85
2018-04-16T14:22:29.911Z,18.98
2018-04-16T14:23:38.868Z,18.92
2018-04-16T14:24:47.790Z,19.08
2018-04-16T14:25:56.767Z,19.11
2018-04-16T14:27:05.955Z,19.02
2018-04-16T14:28:15.443Z,19.06
2018-04-16T14:29:24.909Z,19.08
2018-04-16T14:30:34.746Z,19.06
2018-04-16T14:31:44.224Z,19.18
2018-04-16T14:32:53.123Z,19.13
2018-04-16T14:34:02.790Z,19.18
2018-04-16T14:35:11.680Z,18.92
2018-04-16T14:36:20.852Z,18.85
2018-04-16T14:37:29.894Z,18.87
2018-04-16T14:38:40.856Z,18.78
2018-04-16T14:39:50.177Z,18.87
2018-04-16T14:40:59.064Z,18.73
